Time;durP1;ratioP1;P1;durP2;ratioP2;P2;SDS_P1;SDS_P2;PMS_P1;PMS_P2;Temp;Humidity;BMP_temperature;BMP_pressure;BME280_temperature;BME280_humidity;BME280_pressure;Samples;Min_cycle;Max_cycle;Signal;HPM_P1;HPM_P2
2021/03/08 00:00:00;;;;;;;34.63;21.37;;;;;;;2.25;60.72;100404.89;2181001;81;33115;-65
2021/03/08 00:03:05;;;;;;;36.00;21.10;;;;;;;2.16;61.08;100403.71;2141605;83;29171;-64
2021/03/08 00:06:09;;;;;;;33.05;21.82;;;;;;;2.09;61.59;100410.38;2179035;80;27655;-62
2021/03/08 00:09:11;;;;;;;38.98;22.20;;;;;;;2.02;61.88;100406.52;2145718;82;29785;-66
2021/03/08 00:12:13;;;;;;;35.85;21.07;;;;;;;1.95;62.17;100410.58;2192089;80;31139;-65
2021/03/08 00:15:18;;;;;;;36.35;20.23;;;;;;;1.90;62.50;100412.39;2191802;80;33588;-65
2021/03/08 00:18:20;;;;;;;34.37;20.77;;;;;;;1.85;63.01;100417.31;2203461;80;29169;-65
2021/03/08 00:21:22;;;;;;;32.50;19.48;;;;;;;1.79;62.81;100417.80;2090326;83;27687;-62
2021/03/08 00:24:24;;;;;;;31.40;18.00;;;;;;;1.77;63.23;100417.40;2079482;85;29250;-65
2021/03/08 00:27:26;;;;;;;25.55;17.02;;;;;;;1.72;63.28;100414.81;2157810;81;31596;-62
2021/03/08 00:30:29;;;;;;;31.05;17.40;;;;;;;1.68;63.60;100414.42;2164466;81;33497;-65
2021/03/08 00:33:31;;;;;;;28.32;17.75;;;;;;;1.66;63.88;100421.02;2183861;80;29904;-67
2021/03/08 00:36:33;;;;;;;27.07;17.90;;;;;;;1.67;64.06;100417.95;2201852;80;27741;-64
2021/03/08 00:39:35;;;;;;;28.75;17.75;;;;;;;1.66;64.38;100424.98;2214155;80;29794;-61
2021/03/08 00:42:39;;;;;;;29.32;17.27;;;;;;;1.62;64.17;100416.69;2180215;81;32485;-65
2021/03/08 00:45:41;;;;;;;30.23;18.35;;;;;;;1.62;64.52;100418.00;2154993;82;33104;-64
2021/03/08 00:48:43;;;;;;;28.65;17.87;;;;;;;1.64;64.77;100423.25;2154239;81;29196;-64
2021/03/08 00:51:46;;;;;;;27.17;16.57;;;;;;;1.64;64.72;100417.55;2154983;82;27654;-66
2021/03/08 00:54:48;;;;;;;29.05;18.17;;;;;;;1.64;64.89;100416.22;2187803;81;28824;-66
2021/03/08 00:57:50;;;;;;;28.12;17.82;;;;;;;1.64;65.05;100412.27;2200501;80;33533;-65
2021/03/08 01:00:52;;;;;;;26.33;16.77;;;;;;;1.64;65.16;100408.30;2181315;81;34528;-62
2021/03/08 01:03:55;;;;;;;28.65;17.05;;;;;;;1.64;65.24;100409.63;2186707;80;29156;-64
2021/03/08 01:06:57;;;;;;;32.33;16.48;;;;;;;1.63;65.40;100403.02;2212249;80;27816;-65
2021/03/08 01:09:59;;;;;;;24.37;15.75;;;;;;;1.61;65.57;100397.77;2203689;80;28820;-66
2021/03/08 01:13:02;;;;;;;27.50;16.62;;;;;;;1.58;65.83;100391.62;2145768;82;31150;-64
2021/03/08 01:16:04;;;;;;;26.60;15.58;;;;;;;1.57;65.92;100396.05;2183897;81;34054;-62
2021/03/08 01:19:06;;;;;;;25.02;16.12;;;;;;;1.56;65.96;100391.66;2167777;80;30129;-65
2021/03/08 01:22:09;;;;;;;26.20;16.55;;;;;;;1.55;66.04;100387.27;2081094;85;27733;-63
2021/03/08 01:25:24;;;;;;;24.67;15.90;;;;;;;1.53;66.09;100387.72;2140464;80;28854;-61
2021/03/08 01:28:27;;;;;;;24.52;15.55;;;;;;;1.55;66.50;100383.30;2208663;80;31137;-66
2021/03/08 01:31:29;;;;;;;24.75;15.90;;;;;;;1.55;66.42;100387.73;2180984;81;33111;-63
2021/03/08 01:34:31;;;;;;;25.68;15.40;;;;;;;1.57;66.70;100385.95;2213878;80;29234;-66
2021/03/08 01:37:33;;;;;;;24.60;14.75;;;;;;;1.58;66.70;100378.42;2217247;80;27620;-62
2021/03/08 01:40:38;;;;;;;25.30;15.30;;;;;;;1.60;66.68;100380.17;2206988;80;28820;-65
2021/03/08 01:43:41;;;;;;;28.62;14.75;;;;;;;1.61;66.71;100375.75;2193096;80;31594;-66
2021/03/08 01:46:43;;;;;;;23.70;13.90;;;;;;;1.61;66.94;100370.05;2180928;80;33100;-63
2021/03/08 01:49:45;;;;;;;26.75;15.18;;;;;;;1.59;66.95;100364.33;2180639;81;29372;-64
2021/03/08 01:52:47;;;;;;;30.17;16.07;;;;;;;1.59;67.15;100363.91;2180365;81;28058;-66
2021/03/08 01:55:49;;;;;;;22.87;15.53;;;;;;;1.59;67.20;100366.97;2189672;80;29022;-62
2021/03/08 01:58:52;;;;;;;23.20;14.07;;;;;;;1.59;67.27;100365.22;2216778;80;31140;-61
2021/03/08 02:01:55;;;;;;;21.00;14.85;;;;;;;1.59;67.33;100370.50;2173999;80;33367;-65
2021/03/08 02:04:57;;;;;;;24.72;14.38;;;;;;;1.60;67.33;100370.05;2177261;80;29236;-67
2021/03/08 02:08:04;;;;;;;27.10;16.40;;;;;;;1.62;67.47;100370.47;2180146;81;27581;-65
2021/03/08 02:11:06;;;;;;;25.17;15.55;;;;;;;1.66;67.61;100362.92;2170832;81;28831;-66
2021/03/08 02:14:25;;;;;;;23.55;14.73;;;;;;;1.66;67.59;100366.88;2145321;81;31150;-65
2021/03/08 02:17:39;;;;;;;25.70;13.85;;;;;;;1.65;67.66;100370.88;2180830;81;33183;-65
2021/03/08 02:21:13;;;;;;;27.60;15.40;;;;;;;1.68;67.89;100365.56;2173462;80;29166;-63
2021/03/08 02:25:09;;;;;;;27.15;14.90;;;;;;;1.67;67.79;100370.41;2180375;81;27871;-67
2021/03/08 02:28:48;;;;;;;24.70;16.27;;;;;;;1.63;68.06;100359.02;2177191;80;29807;-67
2021/03/08 02:31:52;;;;;;;20.92;14.55;;;;;;;1.62;68.11;100365.63;2181066;81;32599;-67
2021/03/08 02:35:21;;;;;;;24.57;15.00;;;;;;;1.62;68.30;100363.88;2203968;80;33648;-64
2021/03/08 02:38:44;;;;;;;21.00;15.47;;;;;;;1.72;68.57;100359.36;2223453;79;28099;-67
2021/03/08 02:41:48;;;;;;;23.00;16.10;;;;;;;1.65;68.50;100364.27;2219423;80;27970;-67
2021/03/08 02:44:55;;;;;;;23.52;15.05;;;;;;;1.65;68.65;100365.16;2170110;81;28929;-66
2021/03/08 02:47:58;;;;;;;25.05;15.43;;;;;;;1.64;68.72;100364.73;2188678;81;33397;-65
2021/03/08 02:51:04;;;;;;;26.57;16.17;;;;;;;1.65;68.76;100367.80;2188755;81;33142;-64
2021/03/08 02:54:07;;;;;;;25.60;15.65;;;;;;;1.65;68.91;100363.84;2189130;79;28549;-66
2021/03/08 02:57:10;;;;;;;26.07;15.60;;;;;;;1.63;68.88;100363.41;2218537;79;27622;-66
2021/03/08 03:00:13;;;;;;;22.37;15.03;;;;;;;1.65;69.03;100358.98;2227961;79;28988;-67
2021/03/08 03:03:17;;;;;;;24.63;16.05;;;;;;;1.66;69.10;100366.02;2219025;79;31142;-66
2021/03/08 03:06:20;;;;;;;27.87;16.05;;;;;;;1.65;69.10;100366.48;2195217;79;32288;-63
2021/03/08 03:09:23;;;;;;;29.37;16.70;;;;;;;1.66;69.23;100367.34;2203268;79;28106;-66
2021/03/08 03:12:25;;;;;;;27.37;17.45;;;;;;;1.66;69.29;100366.88;2226484;79;27636;-67
2021/03/08 03:15:27;;;;;;;28.75;18.25;;;;;;;1.67;69.30;100375.23;2221513;79;29705;-65
2021/03/08 03:18:31;;;;;;;32.20;19.15;;;;;;;1.70;69.43;100373.45;2189421;81;31143;-65
2021/03/08 03:21:34;;;;;;;31.30;19.35;;;;;;;1.71;69.43;100383.13;2188902;78;33554;-65
2021/03/08 03:24:37;;;;;;;29.23;18.60;;;;;;;1.71;69.53;100380.48;2159324;81;28866;-67
2021/03/08 03:27:39;;;;;;;31.62;17.80;;;;;;;1.70;69.52;100384.02;2204802;79;27680;-67
2021/03/08 03:30:41;;;;;;;27.42;17.70;;;;;;;1.72;69.58;100391.05;2228437;79;30090;-68
2021/03/08 03:33:45;;;;;;;26.10;17.12;;;;;;;1.72;69.66;100389.73;2228509;79;31153;-68
2021/03/08 03:36:50;;;;;;;26.95;16.70;;;;;;;1.72;69.66;100395.02;2194778;79;33190;-68
2021/03/08 03:39:52;;;;;;;25.75;16.82;;;;;;;1.74;69.70;100393.20;2178906;81;28859;-63
2021/03/08 03:42:54;;;;;;;30.27;17.17;;;;;;;1.77;69.75;100398.45;2183963;80;27587;-67
2021/03/08 03:46:04;;;;;;;26.62;16.97;;;;;;;1.78;69.88;100397.56;2179521;80;31119;-67
2021/03/08 03:49:06;;;;;;;26.60;18.52;;;;;;;1.77;69.80;100400.23;2205617;80;32063;-67
2021/03/08 03:52:09;;;;;;;29.48;17.80;;;;;;;1.75;69.86;100402.87;2170173;80;33030;-66
2021/03/08 03:55:14;;;;;;;26.30;18.10;;;;;;;1.77;70.04;100402.87;2168800;81;28974;-67
2021/03/08 03:58:23;;;;;;;;;;;;;;;1.74;70.08;100401.58;2171529;82;27749;-67
2021/03/08 04:01:35;;;;;;;29.72;18.65;;;;;;;1.74;70.18;100415.65;2169084;80;28820;-64
2021/03/08 04:04:53;;;;;;;37.17;23.05;;;;;;;1.70;70.25;100418.34;2168797;81;32119;-63
2021/03/08 04:07:56;;;;;;;35.90;21.70;;;;;;;1.68;70.36;100418.38;2174147;80;33926;-65
2021/03/08 04:10:58;;;;;;;29.67;19.60;;;;;;;1.68;70.47;100430.27;2168606;80;28851;-66
2021/03/08 04:14:03;;;;;;;32.48;19.27;;;;;;;1.69;70.60;100437.72;2115095;80;27699;-65
2021/03/08 04:17:08;;;;;;;32.67;20.32;;;;;;;1.71;70.64;100436.84;2186234;80;28854;-67
2021/03/08 04:20:18;;;;;;;33.85;20.12;;;;;;;1.71;71.10;100433.30;2185511;80;31153;-61
2021/03/08 04:23:21;;;;;;;30.12;19.42;;;;;;;1.67;70.63;100437.30;2225046;78;33078;-68
2021/03/08 04:26:23;;;;;;;32.65;19.87;;;;;;;1.64;70.77;100444.37;2183326;78;28848;-65
2021/03/08 04:29:25;;;;;;;33.53;21.30;;;;;;;1.62;70.85;100437.81;2214001;80;27669;-62
2021/03/08 04:32:28;;;;;;;34.55;20.52;;;;;;;1.60;70.88;100441.34;2178707;81;31161;-62
2021/03/08 04:35:31;;;;;;;29.00;20.95;;;;;;;1.59;71.01;100446.19;2178639;81;31152;-65
2021/03/08 04:38:33;;;;;;;29.87;19.75;;;;;;;1.59;70.96;100450.14;2173826;81;33201;-65
2021/03/08 04:41:36;;;;;;;30.27;19.73;;;;;;;1.58;70.96;100449.72;2172847;81;28854;-65
2021/03/08 04:44:45;;;;;;;37.15;20.95;;;;;;;1.58;71.00;100449.72;2172913;81;27568;-64
2021/03/08 04:47:48;;;;;;;28.80;19.45;;;;;;;1.58;71.09;100458.95;2188791;79;29853;-67
2021/03/08 04:50:51;;;;;;;28.05;19.48;;;;;;;1.58;71.13;100465.13;2149908;82;33461;-66
2021/03/08 04:53:54;;;;;;;30.02;19.77;;;;;;;1.59;71.10;100469.95;2143084;82;33544;-68
2021/03/08 04:56:56;;;;;;;32.58;20.97;;;;;;;1.57;71.07;100470.44;2149945;81;28944;-65
2021/03/08 04:59:58;;;;;;;29.55;19.32;;;;;;;1.57;71.10;100469.12;2164774;81;28090;-63
2021/03/08 05:03:01;;;;;;;29.63;19.35;;;;;;;1.59;71.08;100479.19;2169216;81;28825;-65
2021/03/08 05:06:05;;;;;;;27.52;18.12;;;;;;;1.58;71.03;100473.48;2118315;81;31157;-62
2021/03/08 05:09:10;;;;;;;28.62;18.82;;;;;;;1.58;70.91;100493.28;2158126;81;33106;-68
2021/03/08 05:12:13;;;;;;;31.25;19.42;;;;;;;1.55;70.86;100492.88;2178804;81;28867;-67
2021/03/08 05:15:17;;;;;;;32.85;20.32;;;;;;;1.53;70.83;100491.15;2182468;81;27688;-62
2021/03/08 05:18:21;;;;;;;27.90;17.42;;;;;;;1.50;70.80;100498.63;2178630;81;28834;-65
2021/03/08 05:21:24;;;;;;;25.85;17.52;;;;;;;1.44;70.75;100497.39;2179175;81;31126;-68
2021/03/08 05:24:27;;;;;;;29.20;16.77;;;;;;;1.37;70.65;100504.48;2178875;81;33092;-67
2021/03/08 05:27:30;;;;;;;23.50;15.98;;;;;;;1.30;70.66;100508.05;2178969;81;28860;-71
2021/03/08 05:30:33;;;;;;;26.07;16.95;;;;;;;1.23;70.55;100518.24;2179078;81;28135;-63
2021/03/08 05:33:36;;;;;;;25.92;16.97;;;;;;;1.13;70.56;100516.98;2184451;81;28909;-67
2021/03/08 05:36:43;;;;;;;26.05;16.27;;;;;;;1.06;70.41;100521.42;2187362;80;31402;-76
2021/03/08 05:39:45;;;;;;;26.05;17.00;;;;;;;1.00;70.45;100524.55;2222021;78;33116;-75
2021/03/08 05:42:53;;;;;;;29.32;17.37;;;;;;;0.93;70.45;100526.78;2222009;80;29693;-69
2021/03/08 05:46:38;;;;;;;27.60;17.75;;;;;;;0.85;70.46;100523.77;2220339;80;27639;-65
2021/03/08 05:50:17;;;;;;;24.55;17.30;;;;;;;0.79;70.56;100522.92;2221923;80;28819;-65
2021/03/08 05:53:43;;;;;;;28.80;16.90;;;;;;;0.72;70.69;100532.18;2220930;80;31152;-62
2021/03/08 05:57:08;;;;;;;26.55;15.88;;;;;;;0.66;70.75;100530.02;2210305;80;34089;-64
2021/03/08 06:00:51;;;;;;;30.37;16.93;;;;;;;0.62;70.88;100533.13;2221157;80;28913;-65
2021/03/08 06:04:40;;;;;;;26.25;14.25;;;;;;;0.60;70.95;100537.06;2222296;80;27616;-66
2021/03/08 06:08:14;;;;;;;20.92;12.75;;;;;;;0.58;70.87;100541.47;2222181;80;28839;-63
2021/03/08 06:11:19;;;;;;;22.95;12.37;;;;;;;0.54;70.87;100549.41;2215156;80;31761;-64
2021/03/08 06:14:41;;;;;;;19.85;10.55;;;;;;;0.49;70.75;100556.47;2190426;80;33185;-63
2021/03/08 06:17:44;;;;;;;24.00;10.55;;;;;;;0.48;70.84;100566.58;2182778;81;28845;-65
2021/03/08 06:20:46;;;;;;;22.95;11.22;;;;;;;0.47;70.80;100576.23;2175729;80;27651;-66
2021/03/08 06:23:49;;;;;;;18.95;9.95;;;;;;;0.49;70.77;100581.52;2184246;80;28948;-64
2021/03/08 06:26:52;;;;;;;16.87;9.93;;;;;;;0.54;71.03;100588.94;2141535;83;31149;-66
2021/03/08 06:29:54;;;;;;;21.30;10.05;;;;;;;0.64;70.85;100591.11;2182024;81;34257;-65
2021/03/08 06:32:57;;;;;;;18.95;9.63;;;;;;;0.75;70.69;100596.77;2137321;83;31194;-61
2021/03/08 06:36:01;;;;;;;14.83;9.03;;;;;;;0.93;70.53;100601.95;2137299;82;27639;-64
2021/03/08 06:39:05;;;;;;;21.60;10.87;;;;;;;1.09;70.45;100604.08;2148281;81;28828;-63
2021/03/08 06:42:08;;;;;;;17.23;8.78;;;;;;;1.29;70.31;100607.91;2137444;83;31193;-64
2021/03/08 06:45:11;;;;;;;23.25;13.28;;;;;;;1.50;70.05;100612.16;2088416;84;33115;-63
2021/03/08 06:48:13;;;;;;;20.02;11.25;;;;;;;1.70;69.85;100616.42;2137554;83;28869;-62
2021/03/08 06:51:18;;;;;;;15.60;9.38;;;;;;;1.93;69.77;100621.50;2135559;83;27621;-66
2021/03/08 06:54:20;;;;;;;22.58;11.28;;;;;;;2.16;69.55;100631.86;2135246;83;29730;-63
2021/03/08 06:57:28;;;;;;;13.83;8.60;;;;;;;2.37;68.97;100637.83;2174495;81;31152;-66
2021/03/08 07:00:34;;;;;;;13.68;8.15;;;;;;;2.53;68.65;100635.91;2140119;81;34478;-65
2021/03/08 07:03:36;;;;;;;15.18;8.50;;;;;;;2.74;68.79;100634.78;2143385;82;28938;-64
2021/03/08 07:06:38;;;;;;;14.80;9.18;;;;;;;2.95;68.42;100638.93;2151671;81;27670;-65
2021/03/08 07:09:52;;;;;;;18.37;10.35;;;;;;;3.13;68.17;100643.13;2158174;81;31164;-65
2021/03/08 07:12:54;;;;;;;16.32;8.90;;;;;;;3.26;67.77;100647.78;2173826;81;32049;-66
2021/03/08 07:19:13;;;;;;;12.23;7.60;;;;;;;3.55;67.14;100649.16;2275944;77;28217;-63
2021/03/08 07:22:15;;;;;;;13.08;8.35;;;;;;;3.62;66.71;100652.59;2261086;78;27527;-64
2021/03/08 07:25:31;;;;;;;13.10;6.72;;;;;;;3.74;66.57;100654.15;2194696;78;28867;-62
2021/03/08 07:28:34;;;;;;;12.23;7.45;;;;;;;3.90;66.42;100654.80;2246853;78;31241;-63
2021/03/08 07:31:43;;;;;;;12.37;6.83;;;;;;;4.09;66.35;100657.57;2222320;80;34017;-65
2021/03/08 07:34:47;;;;;;;13.78;8.55;;;;;;;4.27;65.77;100659.48;2226327;78;28540;-66
2021/03/08 07:37:49;;;;;;;14.28;7.83;;;;;;;4.37;65.18;100666.36;2253027;78;27699;-63
2021/03/08 07:40:51;;;;;;;16.02;9.60;;;;;;;4.40;64.65;100672.05;2217475;80;29843;-66
2021/03/08 07:44:08;;;;;;;17.87;10.65;;;;;;;4.31;63.58;100674.41;2206390;80;31159;-66
2021/03/08 07:50:44;;;;;;;20.35;12.00;;;;;;;4.28;64.38;100665.64;2023924;87;28917;-66
2021/03/08 07:53:46;;;;;;;23.55;12.05;;;;;;;4.29;64.48;100675.35;2083252;85;27680;-66
2021/03/08 07:56:49;;;;;;;18.45;11.68;;;;;;;4.45;64.13;100675.97;2060233;85;28837;-63
2021/03/08 07:59:52;;;;;;;16.45;11.33;;;;;;;4.39;63.79;100685.78;2041244;85;31171;-64
2021/03/08 08:02:56;;;;;;;17.82;11.75;;;;;;;4.38;64.14;100694.63;2071965;85;33115;-66
2021/03/08 08:06:02;;;;;;;17.87;11.70;;;;;;;4.37;63.95;100692.88;2041377;87;28869;-64
2021/03/08 08:09:05;;;;;;;26.48;14.10;;;;;;;4.43;64.18;100700.31;2070264;85;27720;-64
2021/03/08 08:12:13;;;;;;;15.78;11.08;;;;;;;4.52;63.91;100694.83;2076170;85;28830;-63
2021/03/08 08:15:18;;;;;;;26.15;13.38;;;;;;;4.64;63.31;100706.54;2061561;85;32132;-63
2021/03/08 08:18:22;;;;;;;37.10;18.92;;;;;;;4.76;63.25;100707.23;2041015;87;33130;-63
2021/03/08 08:21:24;;;;;;;23.15;12.05;;;;;;;4.85;62.69;100713.68;2041340;87;28865;-63
2021/03/08 08:24:27;;;;;;;32.48;16.12;;;;;;;4.91;62.94;100718.88;2041465;86;27710;-66
2021/03/08 08:27:31;;;;;;;24.72;13.62;;;;;;;4.98;62.32;100715.65;2050994;85;28836;-62
2021/03/08 08:30:33;;;;;;;26.73;14.40;;;;;;;4.95;62.13;100721.02;2075565;85;31161;-66
2021/03/08 08:33:36;;;;;;;29.23;14.95;;;;;;;5.00;62.23;100725.33;2040928;87;34055;-66
2021/03/08 08:36:39;;;;;;;28.35;13.83;;;;;;;5.04;62.33;100729.25;2040851;87;28861;-65
2021/03/08 08:39:43;;;;;;;23.65;13.83;;;;;;;4.98;62.02;100731.11;2041053;87;27770;-66
2021/03/08 08:42:46;;;;;;;23.85;14.38;;;;;;;4.98;62.11;100733.77;2040984;87;28802;-66
2021/03/08 08:45:52;;;;;;;36.55;19.50;;;;;;;4.91;61.70;100738.80;2011990;87;33431;-62
2021/03/08 08:49:18;;;;;;;28.95;16.55;;;;;;;4.92;62.30;100737.89;2040536;87;33129;-65
2021/03/08 08:52:46;;;;;;;30.57;17.52;;;;;;;4.93;61.82;100742.30;2040131;87;28929;-64
2021/03/08 08:55:49;;;;;;;22.65;11.90;;;;;;;4.86;61.38;100748.61;2043811;85;27630;-62
2021/03/08 08:58:52;;;;;;;18.70;11.43;;;;;;;4.61;61.52;100747.75;2040410;87;30195;-65
2021/03/08 09:02:18;;;;;;;17.65;12.15;;;;;;;4.40;61.46;100761.80;2040547;87;32125;-65
2021/03/08 09:05:34;;;;;;;21.12;13.38;;;;;;;4.29;62.05;100764.20;1967065;89;33932;-61
2021/03/08 09:08:36;;;;;;;20.72;12.63;;;;;;;4.19;61.89;100760.81;1995702;89;29763;-65
2021/03/08 09:11:57;;;;;;;31.93;15.90;;;;;;;3.88;61.79;100770.13;1947013;90;27840;-65
2021/03/08 09:15:05;;;;;;;24.55;12.43;;;;;;;3.68;62.33;100763.76;1935286;90;29749;-65
2021/03/08 09:18:09;;;;;;;25.23;12.10;;;;;;;3.61;62.30;100764.76;1966162;90;32165;-65
2021/03/08 09:21:21;;;;;;;18.42;12.35;;;;;;;3.52;62.59;100763.53;1966185;89;33354;-68
2021/03/08 09:24:34;;;;;;;20.83;12.97;;;;;;;3.43;62.06;100769.83;2297494;76;37294;-66
2021/03/08 09:27:47;;;;;;;18.50;11.60;;;;;;;3.45;62.18;100772.91;2263376;77;27747;-66
2021/03/08 09:30:50;;;;;;;22.67;13.00;;;;;;;3.47;62.28;100768.47;2261907;78;29294;-61
2021/03/08 09:33:52;;;;;;;19.42;11.65;;;;;;;3.47;62.56;100768.90;2261832;78;32025;-66
2021/03/08 09:36:55;;;;;;;24.72;13.20;;;;;;;3.45;62.46;100769.36;2261717;78;35454;-67
2021/03/08 09:39:59;;;;;;;22.67;13.08;;;;;;;3.45;62.87;100769.36;2235798;77;28540;-62
2021/03/08 09:43:03;;;;;;;19.15;11.73;;;;;;;3.54;62.61;100770.59;2303356;77;27660;-64
2021/03/08 09:46:15;;;;;;;21.87;12.98;;;;;;;3.54;62.41;100781.61;2299059;77;28715;-62
2021/03/08 09:49:18;;;;;;;23.80;12.10;;;;;;;3.47;61.98;100790.09;2298368;77;31214;-60
2021/03/08 09:52:40;;;;;;;23.50;12.90;;;;;;;3.39;62.03;100782.70;2210842;80;32757;-61
2021/03/08 09:55:42;;;;;;;20.75;10.08;;;;;;;3.31;61.41;100796.03;2241420;79;28870;-61
2021/03/08 09:58:44;;;;;;;29.35;13.08;;;;;;;3.18;61.63;100788.67;2220073;79;27852;-64
2021/03/08 10:01:52;;;;;;;16.40;11.08;;;;;;;3.19;61.74;100795.26;2217640;79;29307;-72
2021/03/08 10:04:56;;;;;;;28.12;15.80;;;;;;;3.19;61.56;100793.94;2213491;79;31407;-70
2021/03/08 10:08:00;;;;;;;20.02;11.00;;;;;;;3.22;61.45;100794.37;2217564;79;33551;-75
2021/03/08 10:11:02;;;;;;;19.07;10.30;;;;;;;3.22;60.74;100793.05;2253256;79;27611;-71
2021/03/08 10:14:04;;;;;;;17.32;9.60;;;;;;;3.30;61.52;100804.88;2252553;79;27723;-74
2021/03/08 10:17:09;;;;;;;16.05;9.48;;;;;;;3.38;60.81;100804.78;2203311;80;29842;-74
2021/03/08 10:20:14;;;;;;;15.48;8.85;;;;;;;3.40;60.46;100802.96;2224945;79;32014;-76
2021/03/08 10:23:29;;;;;;;16.70;7.55;;;;;;;3.42;60.51;100804.72;2211251;79;34037;-66
2021/03/08 10:26:32;;;;;;;27.45;13.75;;;;;;;3.49;60.08;100804.20;2204776;80;27863;-63
2021/03/08 10:29:34;;;;;;;15.70;9.28;;;;;;;3.53;60.11;100807.24;2184046;80;27672;-65
2021/03/08 10:32:36;;;;;;;13.75;8.35;;;;;;;3.51;59.66;100798.44;2201607;80;31143;-68
2021/03/08 10:35:53;;;;;;;10.90;5.90;;;;;;;3.53;59.07;100800.62;2213664;80;32203;-68
2021/03/08 10:39:00;;;;;;;7.85;4.72;;;;;;;3.56;58.18;100804.99;2194490;80;33098;-67
2021/03/08 10:42:02;;;;;;;14.05;7.40;;;;;;;3.54;58.57;100808.11;2175643;81;28859;-67
2021/03/08 10:45:09;;;;;;;8.33;3.42;;;;;;;3.60;57.99;100810.69;2180151;80;27739;-68
2021/03/08 10:48:13;;;;;;;13.62;5.55;;;;;;;3.56;55.90;100804.99;2176630;80;28821;-67
2021/03/08 10:51:20;;;;;;;7.73;4.63;;;;;;;3.54;56.65;100806.78;2197437;80;31217;-67
2021/03/08 10:54:22;;;;;;;6.20;2.77;;;;;;;3.60;56.41;100808.90;2201971;80;33097;-70
2021/03/08 10:57:27;;;;;;;4.12;2.35;;;;;;;3.62;55.23;100805.78;2186786;81;28864;-71
2021/03/08 11:00:32;;;;;;;9.90;3.63;;;;;;;3.65;54.62;100801.78;2187557;81;27634;-63
2021/03/08 11:03:41;;;;;;;7.47;3.10;;;;;;;3.74;55.42;100814.03;2176276;81;32524;-70
2021/03/08 11:06:47;;;;;;;6.30;3.50;;;;;;;3.82;54.64;100809.95;2182098;80;31210;-70
2021/03/08 11:09:49;;;;;;;5.10;2.90;;;;;;;3.91;54.49;100812.93;2214936;80;35386;-72
2021/03/08 11:13:05;;;;;;;5.85;3.40;;;;;;;3.99;53.83;100820.31;2218148;80;28901;-71
2021/03/08 11:16:09;;;;;;;9.00;4.05;;;;;;;3.97;52.81;100810.20;2214643;80;27680;-67
2021/03/08 11:19:23;;;;;;;14.57;7.10;;;;;;;4.13;52.97;100807.33;2206720;79;28804;-62
2021/03/08 11:22:25;;;;;;;8.55;4.30;;;;;;;4.26;53.08;100812.41;2185593;81;30455;-63
2021/03/08 11:25:39;;;;;;;7.87;4.75;;;;;;;4.34;52.57;100803.47;2178461;81;33192;-64
2021/03/08 11:28:43;;;;;;;8.35;4.87;;;;;;;4.36;52.42;100812.28;2178534;81;28864;-68
2021/03/08 11:31:52;;;;;;;6.97;4.08;;;;;;;4.27;51.77;100811.98;2174835;81;27807;-68
2021/03/08 11:34:55;;;;;;;13.00;5.72;;;;;;;4.33;52.76;100809.67;2178542;81;29566;-61
2021/03/08 11:38:11;;;;;;;10.55;5.22;;;;;;;4.47;51.95;100799.72;2178486;81;31138;-60
2021/03/08 11:41:15;;;;;;;22.22;10.85;;;;;;;4.63;52.01;100806.09;2188381;81;33192;-67
2021/03/08 11:44:17;;;;;;;7.60;4.00;;;;;;;4.68;50.06;100806.44;2188958;80;28868;-62
2021/03/08 11:47:20;;;;;;;7.92;4.65;;;;;;;4.70;48.54;100806.42;2189336;79;28114;-69
2021/03/08 11:50:25;;;;;;;5.83;3.95;;;;;;;4.73;51.15;100805.02;2188405;81;29889;-65
2021/03/08 11:53:27;;;;;;;4.97;3.05;;;;;;;4.76;49.84;100802.78;2189251;81;31137;-69
2021/03/08 11:56:30;;;;;;;6.10;3.08;;;;;;;4.74;49.73;100801.47;2189134;81;34004;-70
2021/03/08 11:59:32;;;;;;;4.85;3.00;;;;;;;4.71;49.45;100801.55;2189178;81;28862;-71
2021/03/08 12:02:35;;;;;;;5.97;3.55;;;;;;;4.65;49.18;100806.48;2189186;81;27826;-65
2021/03/08 12:05:37;;;;;;;5.45;3.00;;;;;;;4.71;49.87;100805.06;2189231;81;28891;-73
2021/03/08 12:08:41;;;;;;;13.30;5.78;;;;;;;4.80;48.93;100805.82;2188996;80;27695;-73
2021/03/08 12:11:44;;;;;;;9.35;5.37;;;;;;;4.83;48.73;100806.63;2188989;79;33101;-72
2021/03/08 12:14:46;;;;;;;8.10;4.37;;;;;;;4.83;48.76;100799.09;2189084;79;29835;-70
2021/03/08 12:17:48;;;;;;;4.62;2.60;;;;;;;4.80;49.07;100800.05;2188559;81;27635;-65
2021/03/08 12:20:50;;;;;;;9.08;2.80;;;;;;;4.77;48.97;100792.59;2187973;81;29604;-69
2021/03/08 12:23:53;;;;;;;9.95;3.08;;;;;;;4.72;48.42;100800.61;2184295;80;31213;-70
2021/03/08 12:26:55;;;;;;;9.80;4.95;;;;;;;4.73;48.86;100787.77;2179091;81;33829;-71
2021/03/08 12:29:57;;;;;;;8.68;3.80;;;;;;;4.79;46.85;100792.98;2179030;81;28861;-71
2021/03/08 12:33:00;;;;;;;9.05;5.08;;;;;;;4.78;47.13;100790.37;2179224;81;27641;-71
2021/03/08 12:36:05;;;;;;;5.22;3.55;;;;;;;4.83;46.18;100782.73;2178932;81;28816;-72
2021/03/08 12:39:07;;;;;;;5.45;3.05;;;;;;;4.94;46.41;100780.33;2178875;81;31144;-71
2021/03/08 12:42:10;;;;;;;7.20;4.37;;;;;;;5.08;46.02;100790.70;2178914;81;32936;-70
2021/03/08 12:45:14;;;;;;;11.83;6.45;;;;;;;5.22;46.55;100793.07;2198979;80;28922;-66
2021/03/08 12:48:16;;;;;;;12.30;3.65;;;;;;;5.34;46.32;100787.54;2217539;80;27652;-70
2021/03/08 12:51:20;;;;;;;6.17;3.27;;;;;;;5.48;46.24;100789.89;2217051;80;30172;-60
2021/03/08 12:54:24;;;;;;;7.55;4.50;;;;;;;5.56;45.64;100784.42;2217292;80;32124;-65
2021/03/08 12:57:27;;;;;;;8.23;4.83;;;;;;;5.63;45.77;100783.39;2217663;80;34103;-70
2021/03/08 13:00:29;;;;;;;8.73;5.47;;;;;;;5.65;45.75;100784.24;2193111;80;29297;-71
2021/03/08 13:03:31;;;;;;;12.23;6.17;;;;;;;5.65;44.48;100786.90;2179035;81;27699;-70
2021/03/08 13:06:34;;;;;;;12.43;5.87;;;;;;;5.56;44.59;100786.64;2213908;80;29789;-60
2021/03/08 13:09:36;;;;;;;8.10;5.22;;;;;;;5.52;45.52;100796.91;2215465;80;31147;-67
2021/03/08 13:12:38;;;;;;;9.65;6.85;;;;;;;5.51;45.81;100796.95;2215498;80;33111;-70
2021/03/08 13:15:40;;;;;;;11.35;7.33;;;;;;;5.41;45.10;100802.44;2215606;80;29325;-67
2021/03/08 13:18:42;;;;;;;9.50;5.12;;;;;;;5.35;45.53;100799.03;2215351;80;28251;-68
2021/03/08 13:21:44;;;;;;;9.00;5.55;;;;;;;5.27;45.06;100800.50;2215626;80;29915;-68
2021/03/08 13:24:47;;;;;;;11.03;7.08;;;;;;;5.23;45.72;100802.80;2221045;80;31144;-68
2021/03/08 13:27:49;;;;;;;14.35;7.75;;;;;;;5.16;44.59;100804.70;2209641;79;33239;-69
2021/03/08 13:30:51;;;;;;;10.30;6.28;;;;;;;5.06;45.84;100807.97;2220231;79;28894;-69
2021/03/08 13:33:54;;;;;;;8.88;5.20;;;;;;;4.97;45.33;100804.17;2228032;79;27625;-63
2021/03/08 13:36:57;;;;;;;16.73;6.75;;;;;;;4.86;45.04;100800.38;2227388;79;29261;-69
2021/03/08 13:39:59;;;;;;;7.78;4.00;;;;;;;4.84;45.91;100808.82;2228068;79;32147;-70
2021/03/08 13:43:03;;;;;;;7.08;3.75;;;;;;;4.84;45.30;100805.73;2227978;79;33109;-61
2021/03/08 13:46:06;;;;;;;7.75;3.87;;;;;;;4.88;45.07;100803.89;2228279;79;29307;-70
2021/03/08 13:49:08;;;;;;;10.00;3.33;;;;;;;4.96;44.80;100810.38;2221661;79;27723;-66
2021/03/08 13:52:11;;;;;;;8.48;3.77;;;;;;;4.99;44.83;100805.88;2188999;81;29371;-60
2021/03/08 13:55:15;;;;;;;7.80;4.20;;;;;;;4.98;44.25;100811.23;2188488;79;32011;-63
2021/03/08 13:58:17;;;;;;;7.58;4.87;;;;;;;4.89;44.21;100813.61;2188950;81;34042;-60
2021/03/08 14:01:20;;;;;;;13.72;7.53;;;;;;;4.80;44.67;100809.33;2190978;79;28861;-71
2021/03/08 14:04:22;;;;;;;11.85;6.28;;;;;;;4.75;44.51;100810.32;2188564;79;28291;-70
2021/03/08 14:07:24;;;;;;;5.75;3.40;;;;;;;4.70;44.37;100807.28;2189028;81;28828;-65
2021/03/08 14:10:27;;;;;;;6.12;2.75;;;;;;;4.70;43.68;100802.45;2193986;79;30347;-67
2021/03/08 14:13:29;;;;;;;5.17;2.65;;;;;;;4.79;44.26;100799.61;2228109;79;33155;-71
2021/03/08 14:16:31;;;;;;;6.15;2.62;;;;;;;4.91;43.92;100790.56;2193574;79;28844;-67
2021/03/08 14:19:33;;;;;;;5.70;2.87;;;;;;;5.02;43.81;100797.01;2217429;79;27660;-65
2021/03/08 14:22:36;;;;;;;6.28;2.55;;;;;;;5.16;43.30;100799.38;2228113;79;28806;-69
2021/03/08 14:25:39;;;;;;;6.12;2.65;;;;;;;5.23;42.78;100794.82;2228096;78;31065;-67